Time;durP1;ratioP1;P1;durP2;ratioP2;P2;SDS_P1;SDS_P2;PMS_P1;PMS_P2;Temp;Humidity;BMP_temperature;BMP_pressure;BME280_temperature;BME280_humidity;BME280_pressure;Samples;Min_cycle;Max_cycle;Signal;HPM_P1;HPM_P2
2022/07/11 00:02:02;;;;;;;4.50;2.70;;;;;;;16.83;95.63;100776.16;4980262;28;20246;-70
2022/07/11 00:04:29;;;;;;;4.73;2.73;;;;;;;16.92;94.59;100765.13;4975453;28;20227;-70
2022/07/11 00:06:55;;;;;;;3.93;2.73;;;;;;;16.91;94.72;100773.88;4975476;28;20240;-70
2022/07/11 00:09:20;;;;;;;7.17;2.80;;;;;;;16.98;94.46;100776.88;4975060;28;20282;-69
2022/07/11 00:11:45;;;;;;;4.33;2.80;;;;;;;17.05;94.32;100772.06;4978063;28;20226;-69
2022/07/11 00:14:11;;;;;;;3.53;2.80;;;;;;;17.09;93.49;100776.94;4977348;28;20188;-70
2022/07/11 00:16:36;;;;;;;3.10;2.40;;;;;;;17.11;92.97;100774.22;4974695;28;20195;-70
2022/07/11 00:19:01;;;;;;;4.47;2.50;;;;;;;17.10;93.26;100769.97;4974608;28;20184;-69
2022/07/11 00:21:27;;;;;;;4.00;2.60;;;;;;;17.16;92.47;100766.09;4975828;28;20233;-69
2022/07/11 00:23:52;;;;;;;4.67;2.50;;;;;;;17.20;92.37;100764.94;4979583;28;20181;-69
2022/07/11 00:26:17;;;;;;;5.90;2.33;;;;;;;17.14;93.17;100760.19;4974967;28;20231;-69
2022/07/11 00:28:42;;;;;;;4.50;2.60;;;;;;;17.19;93.29;100756.31;4974573;28;20570;-69
2022/07/11 00:31:08;;;;;;;6.07;2.87;;;;;;;17.26;92.36;100752.31;4966581;28;20242;-69
2022/07/11 00:33:33;;;;;;;2.90;2.40;;;;;;;17.31;91.68;100751.16;4970942;28;20193;-69
2022/07/11 00:35:59;;;;;;;2.97;2.70;;;;;;;17.36;91.34;100755.06;4964921;28;20219;-69
2022/07/11 00:38:24;;;;;;;3.57;2.40;;;;;;;17.36;90.76;100749.88;4973817;28;20176;-69
2022/07/11 00:40:49;;;;;;;3.47;2.20;;;;;;;17.38;91.11;100750.59;4966344;28;20231;-69
2022/07/11 00:43:19;;;;;;;3.20;2.40;;;;;;;17.41;91.05;100746.94;4989573;28;20662;-69
2022/07/11 00:45:47;;;;;;;4.10;2.50;;;;;;;17.45;90.88;100745.75;4974658;28;20211;-69
2022/07/11 00:48:12;;;;;;;3.67;2.40;;;;;;;17.46;91.41;100751.81;4989163;28;20179;-69
2022/07/11 00:50:38;;;;;;;7.23;2.57;;;;;;;17.43;91.57;100745.88;4962426;28;20239;-69
2022/07/11 00:53:03;;;;;;;3.63;2.50;;;;;;;17.45;91.44;100737.97;4984881;28;20180;-69
2022/07/11 00:55:29;;;;;;;5.47;2.43;;;;;;;17.48;91.59;100742.13;4969775;28;20195;-69
2022/07/11 00:57:54;;;;;;;4.93;2.73;;;;;;;17.46;90.92;100739.63;4967991;28;20270;-69
2022/07/11 01:00:20;;;;;;;4.00;2.77;;;;;;;17.47;91.29;100740.47;4965341;28;20275;-69
2022/07/11 01:02:45;;;;;;;6.13;2.83;;;;;;;17.52;91.55;100739.19;4972758;28;20176;-69
2022/07/11 01:05:10;;;;;;;3.07;2.47;;;;;;;17.43;91.01;100730.28;4969870;28;20232;-69
2022/07/11 01:07:38;;;;;;;4.00;2.43;;;;;;;17.54;90.44;100726.09;4973950;28;20215;-70
2022/07/11 01:10:03;;;;;;;3.70;2.50;;;;;;;17.56;90.89;100730.22;4966499;28;20199;-69
2022/07/11 01:12:29;;;;;;;4.80;2.90;;;;;;;17.62;90.24;100725.50;4971244;28;20196;-70
2022/07/11 01:14:57;;;;;;;4.37;2.60;;;;;;;17.56;90.42;100729.38;4973804;28;20184;-70
2022/07/11 01:17:23;;;;;;;4.00;2.67;;;;;;;17.57;91.09;100726.66;4969719;28;20185;-69
2022/07/11 01:19:48;;;;;;;4.87;2.40;;;;;;;17.47;91.60;100730.06;4964683;28;20190;-69
2022/07/11 01:22:14;;;;;;;4.23;2.43;;;;;;;17.49;91.83;100728.16;4978868;28;20702;-69
2022/07/11 01:24:42;;;;;;;3.70;2.30;;;;;;;17.55;91.34;100723.34;4974061;28;20702;-69
2022/07/11 01:27:08;;;;;;;5.10;2.50;;;;;;;17.52;91.29;100720.16;4973141;28;20188;-70
2022/07/11 01:29:33;;;;;;;4.53;2.90;;;;;;;17.53;90.35;100716.63;4968964;28;20211;-70
2022/07/11 01:31:59;;;;;;;6.93;2.40;;;;;;;17.54;90.51;100715.69;4962134;28;20557;-69
2022/07/11 01:34:24;;;;;;;3.67;2.30;;;;;;;17.47;91.22;100720.50;4972538;28;20203;-69
2022/07/11 01:36:49;;;;;;;4.13;2.43;;;;;;;17.48;91.73;100716.94;4973577;28;20187;-69
2022/07/11 01:39:15;;;;;;;2.83;2.37;;;;;;;17.54;91.14;100713.91;4973135;28;20192;-69
2022/07/11 01:41:40;;;;;;;4.43;2.43;;;;;;;17.55;90.88;100706.91;4976177;28;20254;-70
2022/07/11 01:44:05;;;;;;;3.73;2.40;;;;;;;17.56;90.69;100706.81;4976146;28;20209;-69
2022/07/11 01:46:31;;;;;;;3.23;2.53;;;;;;;17.57;90.21;100713.66;4973220;28;20203;-70
2022/07/11 01:48:56;;;;;;;2.53;2.33;;;;;;;17.62;90.94;100710.72;4972109;28;20650;-70
2022/07/11 01:51:25;;;;;;;4.17;2.60;;;;;;;17.63;90.58;100704.56;4973393;28;20302;-70
2022/07/11 01:53:50;;;;;;;5.27;2.70;;;;;;;17.64;90.88;100702.78;4988487;28;20524;-70
2022/07/11 01:56:16;;;;;;;2.43;2.23;;;;;;;17.62;90.68;100699.50;4973420;28;20182;-70
2022/07/11 01:58:41;;;;;;;4.33;2.80;;;;;;;17.59;90.49;100701.38;4971080;28;20725;-69
2022/07/11 02:01:06;;;;;;;5.47;2.40;;;;;;;17.59;89.99;100701.38;4970629;28;20219;-70
2022/07/11 02:03:32;;;;;;;3.80;2.40;;;;;;;17.56;90.28;100700.75;4980127;28;20184;-70
2022/07/11 02:05:57;;;;;;;2.60;2.40;;;;;;;17.54;90.65;100707.88;4972626;28;20235;-69
2022/07/11 02:08:22;;;;;;;3.00;2.70;;;;;;;17.52;91.22;100696.75;4969651;28;20671;-70
2022/07/11 02:10:50;;;;;;;5.90;2.80;;;;;;;17.56;90.38;100696.41;4964919;28;20227;-70
2022/07/11 02:13:17;;;;;;;4.53;2.50;;;;;;;17.62;90.40;100694.28;4982528;28;20267;-69
2022/07/11 02:15:44;;;;;;;4.60;2.60;;;;;;;17.46;90.87;100698.00;4972139;28;20195;-69
2022/07/11 02:18:10;;;;;;;4.37;2.30;;;;;;;17.53;90.76;100695.81;4971720;28;20254;-69
2022/07/11 02:20:37;;;;;;;3.33;2.40;;;;;;;17.40;91.49;100694.13;4966704;28;20318;-70
2022/07/11 02:23:03;;;;;;;5.73;2.27;;;;;;;17.33;92.25;100700.72;4983544;28;20192;-69
2022/07/11 02:25:29;;;;;;;6.97;2.70;;;;;;;17.43;92.32;100698.25;4971227;28;20190;-69
2022/07/11 02:27:55;;;;;;;5.53;2.53;;;;;;;17.46;91.62;100686.81;4968646;28;20184;-69
2022/07/11 02:30:20;;;;;;;3.63;3.00;;;;;;;17.40;92.26;100694.13;4954654;28;20192;-71
2022/07/11 02:32:46;;;;;;;3.93;2.70;;;;;;;17.46;91.63;100695.41;4968100;28;20655;-71
2022/07/11 02:35:11;;;;;;;4.13;2.43;;;;;;;17.50;91.51;100698.63;4959712;28;20263;-70
2022/07/11 02:37:37;;;;;;;3.93;2.37;;;;;;;17.48;91.94;100690.13;4972891;28;20647;-71
2022/07/11 02:40:02;;;;;;;4.43;2.63;;;;;;;17.47;91.42;100689.28;4972535;28;20180;-70
2022/07/11 02:42:28;;;;;;;6.60;2.60;;;;;;;17.54;92.31;100687.06;4989169;28;20266;-71
2022/07/11 02:44:53;;;;;;;5.17;2.20;;;;;;;17.61;91.37;100688.25;4976854;28;20187;-70
2022/07/11 02:47:18;;;;;;;4.53;2.50;;;;;;;17.56;91.00;100688.59;4976913;28;20214;-70
2022/07/11 02:49:44;;;;;;;6.90;2.90;;;;;;;17.61;90.68;100688.25;4976333;28;20270;-72
2022/07/11 02:52:10;;;;;;;4.20;2.30;;;;;;;17.61;91.16;100690.84;4967953;28;20235;-70
2022/07/11 02:54:36;;;;;;;4.70;2.50;;;;;;;17.62;91.54;100691.69;4975407;28;20172;-70
2022/07/11 02:57:01;;;;;;;4.83;2.20;;;;;;;17.67;91.13;100692.97;4976432;28;20188;-70
2022/07/11 02:59:27;;;;;;;3.77;2.50;;;;;;;17.67;90.32;100700.78;4976214;28;20239;-70
2022/07/11 03:01:52;;;;;;;3.77;2.30;;;;;;;17.58;91.37;100693.69;4952555;28;20683;-70
2022/07/11 03:04:17;;;;;;;6.47;2.73;;;;;;;17.64;91.56;100697.59;4977917;28;20228;-70
2022/07/11 03:06:43;;;;;;;3.07;2.30;;;;;;;17.66;91.81;100696.56;4976376;28;20684;-70
2022/07/11 03:09:09;;;;;;;5.43;2.40;;;;;;;17.60;91.40;100694.41;4976082;28;20203;-69
2022/07/11 03:11:35;;;;;;;2.67;2.17;;;;;;;17.56;91.74;100695.56;4978020;28;20234;-69
2022/07/11 03:14:01;;;;;;;3.53;2.57;;;;;;;17.60;91.94;100689.22;4991457;28;20271;-69
2022/07/11 03:16:27;;;;;;;5.93;2.40;;;;;;;17.61;92.48;100696.03;4984747;28;20314;-70
2022/07/11 03:18:53;;;;;;;3.57;2.33;;;;;;;17.65;91.96;100699.25;4980046;28;20177;-70
2022/07/11 03:21:18;;;;;;;5.03;2.50;;;;;;;17.60;91.85;100694.41;4984538;28;20258;-70
2022/07/11 03:23:43;;;;;;;3.47;2.90;;;;;;;17.58;91.60;100689.31;4978870;28;20214;-70
2022/07/11 03:26:09;;;;;;;4.23;2.47;;;;;;;17.48;93.05;100696.13;4968316;28;20651;-69
2022/07/11 03:28:34;;;;;;;2.57;2.23;;;;;;;17.52;93.37;100692.34;4964209;28;20189;-70
2022/07/11 03:30:59;;;;;;;6.17;2.87;;;;;;;17.53;93.08;100688.00;4948198;28;20224;-70
2022/07/11 03:33:25;;;;;;;3.37;2.23;;;;;;;17.54;93.61;100695.69;4964696;28;20189;-69
2022/07/11 03:35:50;;;;;;;4.73;2.20;;;;;;;17.57;92.76;100698.03;4969677;28;20211;-69
2022/07/11 03:38:18;;;;;;;4.77;2.20;;;;;;;17.58;92.16;100702.31;4975726;28;20180;-70
2022/07/11 03:40:44;;;;;;;4.73;2.67;;;;;;;17.61;91.85;100690.84;4970645;28;20638;-70
2022/07/11 03:43:09;;;;;;;3.33;1.90;;;;;;;17.55;91.46;100691.31;4990829;28;20179;-69
2022/07/11 03:45:35;;;;;;;3.23;2.20;;;;;;;17.51;91.24;100685.50;4974592;28;20537;-69
2022/07/11 03:48:00;;;;;;;3.27;2.23;;;;;;;17.52;91.00;100697.56;4974250;28;20274;-69
2022/07/11 03:50:26;;;;;;;3.33;2.03;;;;;;;17.59;90.82;100693.56;4967339;28;20231;-69
2022/07/11 03:52:52;;;;;;;3.63;2.50;;;;;;;17.64;91.11;100687.19;4990432;28;20176;-70
2022/07/11 03:55:17;;;;;;;4.33;2.50;;;;;;;17.65;90.45;100691.44;4975179;28;20194;-70
2022/07/11 03:57:43;;;;;;;2.33;1.93;;;;;;;17.67;91.60;100694.78;4974358;28;20188;-70
2022/07/11 04:00:09;;;;;;;3.57;2.07;;;;;;;17.58;91.26;100683.28;4963733;28;20295;-70
2022/07/11 04:02:35;;;;;;;3.37;2.00;;;;;;;17.70;91.05;100689.31;4990302;28;20671;-70
2022/07/11 04:05:01;;;;;;;4.33;2.33;;;;;;;17.75;90.73;100684.63;4975443;28;20228;-71
2022/07/11 04:07:29;;;;;;;3.57;2.20;;;;;;;17.77;91.13;100681.91;4975345;28;20545;-70
2022/07/11 04:09:55;;;;;;;6.47;2.03;;;;;;;17.81;90.77;100683.31;4973407;28;20184;-70
2022/07/11 04:12:20;;;;;;;6.17;2.27;;;;;;;17.77;90.63;100685.31;4981020;28;20281;-70
2022/07/11 04:14:46;;;;;;;4.80;2.40;;;;;;;17.80;91.05;100682.50;4975401;28;20195;-70
2022/07/11 04:17:11;;;;;;;3.97;2.30;;;;;;;17.91;90.00;100679.06;4975139;28;20180;-70
2022/07/11 04:19:38;;;;;;;5.37;2.13;;;;;;;17.99;89.81;100684.53;4974772;28;20263;-70
2022/07/11 04:22:03;;;;;;;2.20;1.97;;;;;;;18.04;89.41;100679.00;4979777;28;20238;-70
2022/07/11 04:24:29;;;;;;;3.57;2.03;;;;;;;18.15;87.76;100681.59;4964045;28;20180;-70
2022/07/11 04:26:54;;;;;;;3.30;2.43;;;;;;;18.18;88.35;100686.56;4973039;28;20211;-70
2022/07/11 04:29:19;;;;;;;6.90;2.40;;;;;;;18.21;87.85;100675.09;4974565;28;20266;-71
2022/07/11 04:31:45;;;;;;;4.67;2.03;;;;;;;18.29;87.91;100679.69;4966743;28;20319;-71
2022/07/11 04:34:10;;;;;;;2.90;2.07;;;;;;;18.33;86.89;100681.94;4964133;28;20239;-70
2022/07/11 04:36:35;;;;;;;5.80;2.30;;;;;;;18.39;87.46;100672.81;4972837;28;20172;-70
2022/07/11 04:39:00;;;;;;;3.53;2.20;;;;;;;18.53;85.58;100674.31;4972852;28;20654;-70
2022/07/11 04:41:26;;;;;;;3.43;2.07;;;;;;;18.63;84.66;100677.88;4975235;28;20218;-70
2022/07/11 04:43:51;;;;;;;5.17;2.37;;;;;;;18.55;84.15;100681.06;4979283;28;20231;-71
2022/07/11 04:46:16;;;;;;;4.67;2.03;;;;;;;18.54;84.80;100678.59;4974221;28;20196;-70
2022/07/11 04:48:42;;;;;;;2.53;1.73;;;;;;;18.66;84.31;100687.22;4972814;28;20184;-71
2022/07/11 04:51:07;;;;;;;3.83;2.17;;;;;;;18.85;82.65;100678.75;4966416;28;20226;-71
2022/07/11 04:53:33;;;;;;;4.77;2.23;;;;;;;18.94;80.95;100677.22;4981049;28;20633;-71
2022/07/11 04:55:59;;;;;;;5.13;1.43;;;;;;;18.98;81.25;100682.06;4989256;28;20216;-70
2022/07/11 04:58:25;;;;;;;3.20;1.93;;;;;;;19.18;80.67;100692.66;4973969;28;20206;-65
2022/07/11 05:00:51;;;;;;;7.47;2.83;;;;;;;19.27;79.56;100694.50;4965755;28;20302;-65
2022/07/11 05:03:16;;;;;;;2.67;1.80;;;;;;;19.00;78.82;100689.75;4970499;28;20637;-65
2022/07/11 05:05:42;;;;;;;4.60;1.83;;;;;;;19.15;77.76;100696.34;4972564;28;20227;-64
2022/07/11 05:08:07;;;;;;;3.10;2.07;;;;;;;19.42;77.12;100697.63;4973842;28;20203;-67
2022/07/11 05:10:35;;;;;;;5.87;1.83;;;;;;;19.64;75.24;100694.06;4981541;28;20322;-64
2022/07/11 05:13:01;;;;;;;4.43;2.10;;;;;;;19.73;73.84;100697.69;4989100;28;20184;-63
2022/07/11 05:15:26;;;;;;;4.80;1.93;;;;;;;19.61;73.35;100694.31;4974001;28;20180;-64
2022/07/11 05:17:51;;;;;;;6.10;2.33;;;;;;;19.66;74.16;100699.16;4972563;28;20210;-64
2022/07/11 05:20:17;;;;;;;8.37;2.07;;;;;;;19.62;73.29;100703.81;4979265;28;20216;-64
2022/07/11 05:22:43;;;;;;;6.50;1.90;;;;;;;19.64;73.03;100701.88;4978344;28;20204;-66
2022/07/11 05:25:08;;;;;;;2.90;1.90;;;;;;;19.73;72.78;100713.34;4962534;28;20196;-64
2022/07/11 05:27:33;;;;;;;4.83;2.07;;;;;;;19.55;73.50;100712.25;4972712;28;20689;-64
2022/07/11 05:29:59;;;;;;;4.83;2.50;;;;;;;19.50;75.10;100721.31;4973599;28;20187;-69
2022/07/11 05:32:24;;;;;;;4.17;1.83;;;;;;;19.43;75.32;100717.53;4978730;28;20638;-67
2022/07/11 05:34:49;;;;;;;9.03;2.10;;;;;;;19.38;76.19;100722.31;4960349;28;20286;-66
2022/07/11 05:37:15;;;;;;;3.17;1.97;;;;;;;19.55;75.39;100713.09;4973960;28;20191;-65
2022/07/11 05:39:41;;;;;;;5.20;1.60;;;;;;;19.56;75.25;100730.41;4971760;28;20206;-65
2022/07/11 05:42:06;;;;;;;4.17;1.90;;;;;;;19.64;74.21;100727.97;4978709;28;20698;-65
2022/07/11 05:44:31;;;;;;;3.77;1.97;;;;;;;19.52;75.44;100731.59;4973535;28;20272;-65
2022/07/11 05:47:01;;;;;;;3.77;2.20;;;;;;;19.65;74.43;100731.44;4982034;28;20642;-64
2022/07/11 05:49:27;;;;;;;4.60;2.20;;;;;;;19.78;73.67;100728.63;4965084;28;20271;-65
2022/07/11 05:51:53;;;;;;;2.43;1.87;;;;;;;19.73;73.66;100722.97;4981085;28;20227;-64
2022/07/11 05:54:18;;;;;;;5.03;1.93;;;;;;;19.86;73.20;100728.00;4973973;28;20195;-64
2022/07/11 05:56:44;;;;;;;4.90;1.53;;;;;;;19.85;73.35;100729.78;4969792;28;20279;-64
2022/07/11 05:59:09;;;;;;;4.87;1.90;;;;;;;19.86;72.17;100734.06;4969257;28;20217;-67
2022/07/11 06:01:35;;;;;;;4.70;2.27;;;;;;;19.71;74.10;100730.94;4975516;28;20231;-70
2022/07/11 06:04:01;;;;;;;4.43;2.10;;;;;;;20.02;73.21;100727.53;4969933;28;20192;-64
2022/07/11 06:06:26;;;;;;;5.10;2.23;;;;;;;20.03;72.21;100724.78;4973917;28;20206;-64
2022/07/11 06:08:53;;;;;;;4.43;2.20;;;;;;;19.95;73.66;100722.84;4974478;28;20184;-64
2022/07/11 06:11:19;;;;;;;2.90;1.90;;;;;;;20.08;73.81;100724.41;4981875;28;20522;-66
2022/07/11 06:13:45;;;;;;;5.80;2.43;;;;;;;20.14;72.56;100716.06;4987526;28;20195;-67
2022/07/11 06:16:11;;;;;;;6.60;2.20;;;;;;;20.56;69.91;100713.31;4989468;28;20183;-67
2022/07/11 06:18:38;;;;;;;5.83;2.40;;;;;;;20.66;68.92;100710.72;4970409;28;20193;-66
2022/07/11 06:21:04;;;;;;;6.50;2.37;;;;;;;20.61;69.13;100713.72;4960763;28;20228;-65
2022/07/11 06:23:32;;;;;;;5.70;2.33;;;;;;;20.54;68.81;100712.63;4987853;28;20184;-65
2022/07/11 06:25:57;;;;;;;4.97;2.67;;;;;;;20.53;69.02;100712.75;4989810;28;20212;-69
2022/07/11 06:28:23;;;;;;;5.63;3.13;;;;;;;20.51;68.19;100720.72;4989906;28;20168;-64
2022/07/11 06:30:49;;;;;;;5.57;2.67;;;;;;;20.48;68.07;100726.22;4965601;28;20231;-65
2022/07/11 06:33:19;;;;;;;3.50;2.20;;;;;;;20.28;69.64;100722.69;4969197;28;20252;-64
2022/07/11 06:35:45;;;;;;;6.67;3.07;;;;;;;20.59;68.36;100720.88;4969503;28;20191;-64
2022/07/11 06:38:13;;;;;;;4.00;2.50;;;;;;;20.46;68.53;100718.50;4971259;28;20552;-64
2022/07/11 06:40:38;;;;;;;5.43;2.83;;;;;;;20.94;67.12;100716.97;4965747;28;20613;-63
2022/07/11 06:43:04;;;;;;;6.03;2.73;;;;;;;21.07;66.87;100716.72;4972811;28;20191;-65
2022/07/11 06:45:30;;;;;;;6.43;2.67;;;;;;;20.91;66.57;100722.50;4972934;28;20190;-67
2022/07/11 06:47:55;;;;;;;10.90;2.70;;;;;;;21.46;65.29;100726.34;4974348;28;20188;-60
2022/07/11 06:50:20;;;;;;;4.20;2.70;;;;;;;21.62;64.03;100723.19;4962276;28;22354;-61
2022/07/11 06:52:47;;;;;;;5.43;2.73;;;;;;;21.67;62.13;100712.28;4981192;28;20270;-60
2022/07/11 06:55:13;;;;;;;5.27;2.50;;;;;;;21.24;63.13;100717.81;4978636;28;20180;-59
2022/07/11 06:57:38;;;;;;;5.57;3.00;;;;;;;21.21;64.25;100723.34;4978697;28;20271;-59
2022/07/11 07:00:05;;;;;;;9.57;2.73;;;;;;;21.26;63.85;100717.66;4960166;28;20307;-60
2022/07/11 07:02:30;;;;;;;5.37;2.77;;;;;;;21.64;62.02;100726.47;4940335;28;20255;-60
2022/07/11 07:04:58;;;;;;;4.07;2.40;;;;;;;21.63;61.79;100724.81;4968222;28;20707;-59
2022/07/11 07:07:24;;;;;;;3.10;2.10;;;;;;;21.76;61.36;100725.34;4971344;28;20215;-59
2022/07/11 07:09:50;;;;;;;4.23;2.63;;;;;;;21.73;61.52;100730.88;4972858;28;20176;-59
2022/07/11 07:12:15;;;;;;;4.13;2.30;;;;;;;21.69;61.70;100737.34;4959435;28;20215;-60
2022/07/11 07:14:41;;;;;;;5.10;2.30;;;;;;;21.64;62.33;100736.94;4963263;28;20946;-60
2022/07/11 07:17:07;;;;;;;5.17;2.43;;;;;;;21.25;64.14;100722.09;4951622;28;20252;-60
2022/07/11 07:19:32;;;;;;;3.07;2.17;;;;;;;21.17;63.87;100735.00;4965088;28;20238;-60
2022/07/11 07:21:58;;;;;;;4.43;2.03;;;;;;;20.79;65.40;100734.03;4981736;28;20227;-60
2022/07/11 07:24:23;;;;;;;2.57;2.00;;;;;;;20.60;66.65;100732.16;4976271;28;20181;-60
2022/07/11 07:26:48;;;;;;;3.60;2.70;;;;;;;20.67;66.39;100733.28;4987298;28;20597;-60
2022/07/11 07:29:14;;;;;;;6.47;3.20;;;;;;;20.59;66.85;100736.56;4974268;28;20184;-59
2022/07/11 07:31:39;;;;;;;7.27;3.70;;;;;;;20.68;66.00;100734.09;4935227;28;20213;-60
2022/07/11 07:34:05;;;;;;;7.43;3.43;;;;;;;20.86;67.27;100735.13;4971155;28;20626;-60
2022/07/11 07:36:30;;;;;;;4.57;3.17;;;;;;;20.99;66.00;100734.88;4975571;28;20210;-60
2022/07/11 07:38:55;;;;;;;4.30;3.90;;;;;;;21.14;64.22;100737.91;4976488;28;20194;-60
2022/07/11 07:41:21;;;;;;;7.27;4.57;;;;;;;21.13;63.99;100736.25;4975583;28;20250;-59
2022/07/11 07:43:48;;;;;;;6.30;5.00;;;;;;;21.11;63.93;100738.19;4981333;28;20184;-59
2022/07/11 07:46:14;;;;;;;6.07;5.47;;;;;;;21.12;63.30;100737.22;4979650;28;20196;-60
2022/07/11 07:48:39;;;;;;;6.77;6.10;;;;;;;21.14;63.09;100739.72;4991197;28;20176;-59
2022/07/11 07:51:04;;;;;;;6.50;5.90;;;;;;;21.15;63.25;100731.72;4984459;28;20227;-60
2022/07/11 07:53:30;;;;;;;8.40;6.40;;;;;;;21.06;64.81;100738.63;4997138;28;20544;-60
2022/07/11 07:55:55;;;;;;;7.67;5.30;;;;;;;21.36;64.31;100736.81;4985216;28;20255;-59
2022/07/11 07:58:20;;;;;;;7.93;5.87;;;;;;;21.70;61.81;100738.19;4987189;28;20184;-59
2022/07/11 08:03:31;;;;;;;8.27;7.47;;;;;;;21.84;60.68;100732.47;4998176;28;20329;-59
2022/07/11 08:05:56;;;;;;;7.43;6.73;;;;;;;21.99;61.55;100738.13;4991356;28;20231;-60
2022/07/11 08:08:22;;;;;;;8.53;6.87;;;;;;;21.75;60.90;100742.00;4992029;28;20210;-60
2022/07/11 08:10:47;;;;;;;7.70;6.97;;;;;;;21.63;61.97;100742.31;4978022;28;20219;-60
2022/07/11 08:13:12;;;;;;;8.50;7.70;;;;;;;21.61;63.28;100742.47;4973515;28;20213;-60
2022/07/11 08:15:38;;;;;;;7.57;6.93;;;;;;;21.48;62.47;100742.72;4980532;28;20208;-60
2022/07/11 08:18:03;;;;;;;7.50;6.73;;;;;;;21.39;63.00;100752.22;4979863;28;20185;-60
2022/07/11 08:20:29;;;;;;;10.13;6.77;;;;;;;20.98;64.19;100758.56;4960089;28;20274;-60
2022/07/11 08:23:03;;;;;;;7.83;6.23;;;;;;;20.71;66.01;100752.97;4991481;28;20254;-60
2022/07/11 08:25:29;;;;;;;6.50;6.00;;;;;;;20.75;66.42;100757.00;4982764;28;20180;-59
2022/07/11 08:27:55;;;;;;;7.33;6.20;;;;;;;20.70;66.86;100751.31;4990843;28;20241;-59
2022/07/11 08:30:20;;;;;;;6.87;6.20;;;;;;;20.85;65.77;100758.81;4983710;28;20631;-60
2022/07/11 08:32:46;;;;;;;6.73;6.13;;;;;;;20.82;66.18;100761.69;4985841;28;20171;-59
2022/07/11 08:35:11;;;;;;;6.53;5.90;;;;;;;20.53;67.51;100763.22;4963352;28;20778;-61
2022/07/11 08:37:37;;;;;;;9.97;6.30;;;;;;;20.78;66.76;100754.09;4976476;28;20542;-60
2022/07/11 08:40:03;;;;;;;4.43;3.80;;;;;;;20.75;64.59;100756.16;4969334;28;20267;-61
2022/07/11 08:42:32;;;;;;;4.33;3.93;;;;;;;20.77;65.16;100760.28;4977846;28;20195;-60
2022/07/11 08:44:58;;;;;;;3.97;3.67;;;;;;;20.84;64.73;100764.97;4978270;28;20192;-60
2022/07/11 08:47:24;;;;;;;3.83;3.40;;;;;;;20.90;64.48;100761.84;4972698;28;20259;-59
2022/07/11 08:49:51;;;;;;;5.03;4.10;;;;;;;21.07;63.86;100755.97;4975342;28;20192;-60
2022/07/11 08:52:19;;;;;;;5.10;3.83;;;;;;;21.08;63.46;100754.16;4967037;28;20251;-59
2022/07/11 08:54:44;;;;;;;4.53;3.73;;;;;;;21.01;63.39;100753.03;4997315;28;20187;-62
2022/07/11 08:57:10;;;;;;;3.87;3.57;;;;;;;21.26;61.98;100756.91;4979500;28;20236;-58
2022/07/11 08:59:41;;;;;;;3.53;2.93;;;;;;;21.30;60.15;100750.47;4973549;28;20563;-59
2022/07/11 09:02:08;;;;;;;3.93;2.87;;;;;;;21.41;60.35;100758.16;4965380;28;20227;-59
2022/07/11 09:04:34;;;;;;;3.27;3.03;;;;;;;21.37;59.29;100767.25;4978985;28;20682;-58
2022/07/11 09:07:01;;;;;;;2.87;2.60;;;;;;;21.18;59.78;100759.41;4973596;28;20234;-58
2022/07/11 09:09:27;;;;;;;3.20;2.90;;;;;;;21.61;57.15;100763.41;4975935;28;20279;-59
2022/07/11 09:11:55;;;;;;;3.53;2.67;;;;;;;21.57;58.68;100762.03;4978275;28;20218;-59
2022/07/11 09:14:22;;;;;;;3.30;3.00;;;;;;;21.42;58.83;100753.75;4971498;28;20245;-59
2022/07/11 09:16:59;;;;;;;5.33;3.20;;;;;;;21.80;57.72;100761.75;4992788;28;20195;-68
2022/07/11 09:19:27;;;;;;;6.73;4.73;;;;;;;22.18;57.89;100754.75;4992590;28;20183;-58
2022/07/11 09:25:21;;;;;;;6.30;4.30;;;;;;;21.87;59.31;100753.16;4966254;28;20791;-58
2022/07/11 09:27:50;;;;;;;8.33;4.27;;;;;;;22.12;58.56;100752.69;4969276;28;20232;-58
2022/07/11 09:30:17;;;;;;;5.23;3.50;;;;;;;22.11;57.70;100751.84;4958308;28;20195;-58
2022/07/11 09:32:59;;;;;;;5.83;3.30;;;;;;;22.42;57.34;100754.25;4971360;28;20270;-58
2022/07/11 09:35:36;;;;;;;4.50;2.93;;;;;;;23.08;53.29;100743.63;4962246;28;20192;-57
2022/07/11 09:38:09;;;;;;;5.03;3.20;;;;;;;22.86;53.68;100746.53;4984424;28;20188;-58
2022/07/11 09:40:35;;;;;;;2.50;2.30;;;;;;;23.59;51.17;100741.28;4978196;28;20226;-58
2022/07/11 09:43:01;;;;;;;3.57;2.17;;;;;;;23.78;48.89;100745.53;4962293;28;20194;-58
2022/07/11 09:45:29;;;;;;;2.83;2.60;;;;;;;23.47;48.62;100740.72;4975308;28;20187;-57
2022/07/11 09:47:57;;;;;;;3.87;2.37;;;;;;;23.77;48.29;100742.06;4975121;28;20223;-58
2022/07/11 09:50:25;;;;;;;2.37;2.20;;;;;;;23.18;50.21;100753.13;4965927;28;20224;-57
2022/07/11 09:53:06;;;;;;;2.67;2.40;;;;;;;23.35;49.01;100743.56;4988392;28;20541;-58
2022/07/11 09:55:40;;;;;;;3.63;2.33;;;;;;;23.00;49.79;100747.81;4990088;28;20183;-57
2022/07/11 09:58:10;;;;;;;2.70;2.37;;;;;;;22.46;52.41;100745.09;4975531;28;20183;-58
2022/07/11 10:00:38;;;;;;;3.37;2.80;;;;;;;22.76;54.20;100737.09;4963211;28;20240;-59
2022/07/11 10:03:06;;;;;;;2.93;2.43;;;;;;;23.45;50.27;100734.78;4973413;28;20665;-58
2022/07/11 10:05:32;;;;;;;3.23;2.30;;;;;;;23.92;47.82;100731.03;4975609;28;20231;-59
2022/07/11 10:07:58;;;;;;;3.33;2.33;;;;;;;23.47;49.32;100733.66;4976039;28;20667;-59
2022/07/11 10:10:27;;;;;;;2.57;2.30;;;;;;;23.32;49.13;100725.50;4965528;28;20313;-58
2022/07/11 10:12:53;;;;;;;5.03;2.57;;;;;;;23.79;47.80;100728.78;4990095;28;20180;-59
2022/07/11 10:15:24;;;;;;;3.23;2.50;;;;;;;24.10;46.98;100729.16;4974470;28;20176;-58
2022/07/11 10:18:27;;;;;;;3.87;2.30;;;;;;;24.37;47.07;100731.72;4976199;28;20184;-58
2022/07/11 10:21:31;;;;;;;2.70;2.40;;;;;;;24.33;47.15;100728.56;4972880;28;20222;-58
2022/07/11 10:24:08;;;;;;;3.23;2.30;;;;;;;24.44;46.86;100732.72;4955413;28;20188;-62
2022/07/11 10:26:45;;;;;;;2.55;2.35;;;;;;;24.90;45.62;100732.38;4947095;28;20730;-57
2022/07/11 10:29:29;;;;;;;2.28;2.00;;;;;;;25.76;42.89;100738.13;4939372;28;20835;-59
2022/07/11 10:32:11;;;;;;;7.97;2.40;;;;;;;26.71;41.75;100741.75;4940751;28;20387;-58
2022/07/11 10:34:36;;;;;;;2.67;2.10;;;;;;;28.86;36.36;100742.25;4932033;28;20196;-59
2022/07/11 10:37:07;;;;;;;3.58;2.03;;;;;;;29.64;35.08;100750.22;4950940;28;20187;-58
2022/07/11 10:39:46;;;;;;;1.95;1.85;;;;;;;28.85;35.24;100743.25;4950496;28;20197;-59
2022/07/11 10:42:19;;;;;;;2.33;2.13;;;;;;;28.24;37.03;100741.72;4924550;28;20228;-58
2022/07/11 10:44:50;;;;;;;2.22;2.10;;;;;;;28.69;35.52;100747.78;4951101;28;20212;-58
2022/07/11 10:47:38;;;;;;;3.22;2.03;;;;;;;27.99;35.83;100742.00;4950391;28;20216;-58
2022/07/11 10:50:29;;;;;;;2.88;1.88;;;;;;;27.78;36.22;100743.53;4940439;28;20251;-57
2022/07/11 10:52:57;;;;;;;2.22;2.03;;;;;;;27.09;37.72;100738.38;4951184;28;20197;-57
2022/07/11 10:55:36;;;;;;;1.75;1.65;;;;;;;26.27;39.34;100743.09;4967278;28;20378;-58
2022/07/11 10:58:22;;;;;;;2.42;2.20;;;;;;;26.29;39.98;100730.56;4970637;28;20198;-59
2022/07/11 11:01:09;;;;;;;3.55;2.55;;;;;;;25.58;40.76;100738.34;4978608;28;20235;-57
2022/07/11 11:03:34;;;;;;;3.90;2.15;;;;;;;25.47;41.23;100731.59;4968520;28;20223;-58
2022/07/11 11:06:00;;;;;;;2.38;2.17;;;;;;;25.15;41.96;100735.84;4990065;28;20275;-58
2022/07/11 11:08:40;;;;;;;3.92;2.35;;;;;;;25.29;42.86;100726.47;4982255;28;20634;-59
2022/07/11 11:11:26;;;;;;;4.55;3.33;;;;;;;25.57;43.36;100728.78;4980964;28;20609;-58
2022/07/11 11:14:22;;;;;;;3.50;3.20;;;;;;;25.69;43.71;100727.44;4981728;28;20565;-57
2022/07/11 11:16:49;;;;;;;3.13;2.80;;;;;;;25.89;43.30;100727.06;4981680;28;20704;-59
2022/07/11 11:19:48;;;;;;;2.92;2.67;;;;;;;25.22;43.58;100726.31;4987431;28;20186;-58
2022/07/11 11:22:19;;;;;;;4.25;2.50;;;;;;;25.05;44.48;100714.13;4994225;28;20240;-58
2022/07/11 11:24:48;;;;;;;3.00;2.75;;;;;;;24.67;45.24;100719.81;4975050;28;20216;-57
2022/07/11 11:27:22;;;;;;;4.90;2.42;;;;;;;25.29;43.56;100714.13;4981114;28;20200;-57
2022/07/11 11:29:50;;;;;;;3.10;2.70;;;;;;;25.09;44.97;100724.19;4975088;28;20176;-58
2022/07/11 11:32:15;;;;;;;2.95;2.40;;;;;;;25.44;43.71;100724.84;4948079;28;20232;-57